createdAt,value
2019-02-02T00:00:21.754Z,985.60
2019-02-02T00:01:21.760Z,985.62
2019-02-02T00:02:21.774Z,985.63
2019-02-02T00:03:21.784Z,985.66
2019-02-02T00:04:21.798Z,985.70
2019-02-02T00:05:21.805Z,985.64
2019-02-02T00:06:21.818Z,985.66
2019-02-02T00:07:21.833Z,985.65
2019-02-02T00:08:21.840Z,985.66
2019-02-02T00:09:21.852Z,985.56
2019-02-02T00:10:21.862Z,985.57
2019-02-02T00:11:21.876Z,985.55
2019-02-02T00:12:21.884Z,985.52
2019-02-02T00:13:21.896Z,985.53
2019-02-02T00:14:21.933Z,985.50
2019-02-02T00:15:21.930Z,985.50
2019-02-02T00:16:21.926Z,985.50
2019-02-02T00:17:21.934Z,985.46
2019-02-02T00:18:21.944Z,985.42
2019-02-02T00:19:21.960Z,985.40
2019-02-02T00:20:21.976Z,985.41
2019-02-02T00:21:21.983Z,985.42
2019-02-02T00:22:21.998Z,985.42
2019-02-02T00:23:22.006Z,985.39
2019-02-02T00:24:22.018Z,985.49
2019-02-02T00:25:22.025Z,985.51
2019-02-02T00:26:22.039Z,985.50
2019-02-02T00:27:22.053Z,985.50
2019-02-02T00:28:22.073Z,985.50
2019-02-02T00:29:22.071Z,985.49
2019-02-02T00:30:22.083Z,985.51
2019-02-02T00:31:22.098Z,985.57
2019-02-02T00:32:22.100Z,985.59
2019-02-02T00:33:22.116Z,985.65
2019-02-02T00:34:22.123Z,985.64
2019-02-02T00:35:22.134Z,985.65
2019-02-02T00:36:22.144Z,985.62
2019-02-02T00:37:22.164Z,985.64
2019-02-02T00:38:22.175Z,985.59
2019-02-02T00:39:22.188Z,985.62
2019-02-02T00:40:22.194Z,985.62
2019-02-02T00:41:22.204Z,985.64
2019-02-02T00:42:22.214Z,985.58
2019-02-02T00:43:22.224Z,985.66
2019-02-02T00:44:22.235Z,985.66
2019-02-02T00:45:22.248Z,985.61
2019-02-02T00:46:22.260Z,985.66
2019-02-02T00:47:22.268Z,985.61
2019-02-02T00:48:22.277Z,985.62
2019-02-02T00:49:22.303Z,985.62
2019-02-02T00:50:22.302Z,985.61
2019-02-02T00:51:22.316Z,985.65
2019-02-02T00:52:22.321Z,985.70
2019-02-02T00:53:22.343Z,985.69
2019-02-02T00:54:22.350Z,985.68
2019-02-02T00:55:22.369Z,985.69
2019-02-02T00:56:22.371Z,985.71
2019-02-02T00:57:22.380Z,985.74
2019-02-02T00:58:22.395Z,985.73
2019-02-02T00:59:22.403Z,985.75
2019-02-02T01:00:22.413Z,985.72
2019-02-02T01:01:22.420Z,985.73
2019-02-02T01:02:22.435Z,985.72
2019-02-02T01:03:22.446Z,985.72
2019-02-02T01:04:22.459Z,985.69
2019-02-02T01:05:22.479Z,985.69
2019-02-02T01:06:22.482Z,985.74
2019-02-02T01:07:22.493Z,985.77
2019-02-02T01:08:22.500Z,985.75
2019-02-02T01:09:22.511Z,985.72
2019-02-02T01:10:22.528Z,985.76
2019-02-02T01:11:22.541Z,985.79
2019-02-02T01:12:22.551Z,985.80
2019-02-02T01:13:22.556Z,985.82
2019-02-02T01:14:22.573Z,985.82
2019-02-02T01:15:22.601Z,985.83
2019-02-02T01:16:22.597Z,985.80
2019-02-02T01:17:22.622Z,985.77
2019-02-02T01:18:22.612Z,985.81
2019-02-02T01:19:22.628Z,985.78
2019-02-02T01:20:22.636Z,985.80
2019-02-02T01:21:22.659Z,985.79
2019-02-02T01:22:22.666Z,985.79
2019-02-02T01:23:22.673Z,985.83
2019-02-02T01:24:22.682Z,985.84
2019-02-02T01:25:22.693Z,985.84
2019-02-02T01:26:22.713Z,985.81
2019-02-02T01:27:22.719Z,985.81
2019-02-02T01:28:22.725Z,985.83
2019-02-02T01:29:22.740Z,985.81
2019-02-02T01:30:22.750Z,985.83
2019-02-02T01:31:22.764Z,985.78
2019-02-02T01:32:22.771Z,985.82
2019-02-02T01:33:22.787Z,985.84
2019-02-02T01:34:22.795Z,985.83
2019-02-02T01:35:22.806Z,985.81
2019-02-02T01:36:22.820Z,985.81
2019-02-02T01:37:22.829Z,985.77
2019-02-02T01:38:22.840Z,985.80
2019-02-02T01:39:22.848Z,985.80
2019-02-02T01:40:22.863Z,985.84
2019-02-02T01:41:22.873Z,985.83
2019-02-02T01:42:22.888Z,985.83
2019-02-02T01:43:22.896Z,985.87
2019-02-02T01:44:22.905Z,985.91
2019-02-02T01:45:22.921Z,985.92
2019-02-02T01:46:22.931Z,985.88
2019-02-02T01:47:22.943Z,985.83
2019-02-02T01:48:22.953Z,985.86
2019-02-02T01:49:22.961Z,985.81
2019-02-02T01:50:22.976Z,985.84
2019-02-02T01:51:22.993Z,985.85
2019-02-02T01:52:22.995Z,985.87
2019-02-02T01:53:23.006Z,985.86
2019-02-02T01:54:23.023Z,985.91
2019-02-02T01:55:23.027Z,985.85
2019-02-02T01:56:23.036Z,985.87
2019-02-02T01:57:23.059Z,985.87
2019-02-02T01:58:23.062Z,985.88
2019-02-02T01:59:23.078Z,985.86
2019-02-02T02:00:23.092Z,985.88
2019-02-02T02:01:23.099Z,985.86
2019-02-02T02:02:23.109Z,985.85
2019-02-02T02:03:23.124Z,985.87
2019-02-02T02:04:23.131Z,985.87
2019-02-02T02:05:23.138Z,985.85
2019-02-02T02:06:23.154Z,985.84
2019-02-02T02:07:23.160Z,985.91
2019-02-02T02:08:23.173Z,985.91
2019-02-02T02:09:23.234Z,985.91
2019-02-02T02:10:23.193Z,985.93
2019-02-02T02:11:23.207Z,985.91
2019-02-02T02:12:23.217Z,985.95
2019-02-02T02:13:23.241Z,985.94
2019-02-02T02:14:23.236Z,985.95
2019-02-02T02:15:23.251Z,985.93
2019-02-02T02:16:23.270Z,985.98
2019-02-02T02:17:23.276Z,985.99
2019-02-02T02:18:23.286Z,985.96
2019-02-02T02:19:23.293Z,985.98
2019-02-02T02:20:24.370Z,985.98
2019-02-02T02:21:23.319Z,985.98
2019-02-02T02:22:23.332Z,985.96
2019-02-02T02:23:23.357Z,985.94
2019-02-02T02:24:23.351Z,985.99
2019-02-02T02:25:23.362Z,985.95
2019-02-02T02:26:23.380Z,985.96
2019-02-02T02:27:23.385Z,985.96
2019-02-02T02:28:28.218Z,985.96
2019-02-02T02:29:23.401Z,985.97
2019-02-02T02:30:23.417Z,985.93
2019-02-02T02:31:23.427Z,985.93
2019-02-02T02:32:23.437Z,985.95
2019-02-02T02:33:23.449Z,985.96
2019-02-02T02:34:23.461Z,985.95
2019-02-02T02:35:23.470Z,985.95
2019-02-02T02:36:23.493Z,985.95
2019-02-02T02:37:23.494Z,985.97
2019-02-02T02:38:23.505Z,985.92
2019-02-02T02:39:23.522Z,985.97
2019-02-02T02:40:23.777Z,985.98
2019-02-02T02:41:23.539Z,985.98
2019-02-02T02:42:23.551Z,985.98
2019-02-02T02:43:23.566Z,986.02
2019-02-02T02:44:23.579Z,985.93
2019-02-02T02:45:23.585Z,985.98
2019-02-02T02:46:23.593Z,985.98
2019-02-02T02:47:23.609Z,986.02
2019-02-02T02:48:23.616Z,986.03
2019-02-02T02:49:23.646Z,986.06
2019-02-02T02:50:23.639Z,986.06
2019-02-02T02:51:23.654Z,986.07
2019-02-02T02:52:23.661Z,986.08
2019-02-02T02:53:23.671Z,986.08
2019-02-02T02:54:23.693Z,986.10
2019-02-02T02:55:23.699Z,986.09
2019-02-02T02:56:23.743Z,986.09
2019-02-02T02:57:23.718Z,986.07
2019-02-02T02:58:23.729Z,986.10
2019-02-02T02:59:23.765Z,986.15
2019-02-02T03:00:23.751Z,986.15
2019-02-02T03:01:23.764Z,986.18
2019-02-02T03:02:23.774Z,986.15
2019-02-02T03:03:23.786Z,986.19
2019-02-02T03:04:23.794Z,986.14
2019-02-02T03:05:23.809Z,986.19
2019-02-02T03:06:23.840Z,986.18
2019-02-02T03:07:23.839Z,986.16
2019-02-02T03:08:23.933Z,986.19
2019-02-02T03:38:21.774Z,986.01
2019-02-02T03:39:21.749Z,986.04
2019-02-02T03:41:13.699Z,986.12
2019-02-02T03:42:13.665Z,986.16
2019-02-02T03:44:06.067Z,986.01
2019-02-02T03:45:06.045Z,986.05
2019-02-02T03:46:57.968Z,986.16
2019-02-02T03:47:57.946Z,986.15
2019-02-02T03:49:49.856Z,986.20
2019-02-02T03:50:49.854Z,986.17
2019-02-02T03:52:41.788Z,986.29
2019-02-02T03:53:41.770Z,986.27
2019-02-02T03:55:33.701Z,986.26
2019-02-02T03:56:33.699Z,986.34
2019-02-02T03:58:25.647Z,986.37
2019-02-02T03:59:25.627Z,986.30
2019-02-02T04:01:17.529Z,986.35
2019-02-02T04:02:17.530Z,986.37
2019-02-02T04:04:09.949Z,986.38
2019-02-02T04:05:09.968Z,986.46
2019-02-02T04:07:02.368Z,986.51
2019-02-02T04:08:02.355Z,986.52
2019-02-02T04:09:54.768Z,986.47
2019-02-02T04:10:54.762Z,986.47
2019-02-02T04:12:46.686Z,986.59
2019-02-02T04:13:46.665Z,986.59
2019-02-02T04:15:38.573Z,986.53
2019-02-02T04:16:38.578Z,986.56
2019-02-02T04:18:30.712Z,986.63
2019-02-02T04:19:30.700Z,986.65
2019-02-02T04:21:22.614Z,986.65
2019-02-02T04:22:22.620Z,986.62
2019-02-02T04:24:15.061Z,986.61
2019-02-02T04:25:15.052Z,986.61
2019-02-02T04:27:06.997Z,986.57
2019-02-02T04:28:06.978Z,986.54
2019-02-02T04:29:58.889Z,986.59
2019-02-02T04:30:58.894Z,986.60
2019-02-02T04:32:50.818Z,986.55
2019-02-02T04:33:50.799Z,986.54
2019-02-02T04:35:42.709Z,986.65
2019-02-02T04:36:42.718Z,986.68
2019-02-02T04:38:34.653Z,986.65
2019-02-02T04:39:34.636Z,986.69
2019-02-02T04:41:27.031Z,986.62
2019-02-02T04:42:27.036Z,986.65
2019-02-02T04:44:18.970Z,986.60
2019-02-02T04:45:18.945Z,986.65
2019-02-02T04:47:10.876Z,986.68
2019-02-02T04:48:10.855Z,986.69
2019-02-02T04:50:02.777Z,986.72
2019-02-02T04:51:02.782Z,986.72
2019-02-02T04:52:54.734Z,986.78
2019-02-02T04:53:54.692Z,986.79
2019-02-02T04:55:46.603Z,986.82
2019-02-02T04:56:46.613Z,986.86
2019-02-02T04:58:38.591Z,986.86
2019-02-02T04:59:38.517Z,986.85
2019-02-02T05:01:30.956Z,986.82
2019-02-02T05:02:30.937Z,986.84
2019-02-02T05:04:22.863Z,986.84
2019-02-02T05:05:22.838Z,986.82
2019-02-02T05:07:15.254Z,986.86
2019-02-02T05:08:15.232Z,986.88
2019-02-02T05:10:07.149Z,986.90
2019-02-02T05:11:07.150Z,986.88
2019-02-02T05:12:59.080Z,986.89
2019-02-02T05:13:59.065Z,986.96
2019-02-02T05:15:50.962Z,986.99
2019-02-02T05:16:50.969Z,986.93
2019-02-02T05:17:50.978Z,986.90
2019-02-02T05:18:51.022Z,986.92
2019-02-02T05:19:50.999Z,986.96
2019-02-02T05:20:51.044Z,986.96
2019-02-02T05:21:51.019Z,986.91
2019-02-02T05:22:51.028Z,986.99
2019-02-02T05:23:51.079Z,986.93
2019-02-02T05:24:51.055Z,986.95
2019-02-02T05:25:51.062Z,986.92
2019-02-02T05:26:51.078Z,986.93
2019-02-02T05:27:51.084Z,986.90
2019-02-02T05:28:51.098Z,986.90
2019-02-02T05:29:51.104Z,986.91
2019-02-02T05:30:51.115Z,986.86
2019-02-02T05:31:51.127Z,986.89
2019-02-02T05:32:51.136Z,986.94
2019-02-02T05:33:53.668Z,986.93
2019-02-02T05:34:51.158Z,986.93
2019-02-02T05:35:51.168Z,986.92
2019-02-02T05:36:51.186Z,986.94
2019-02-02T05:37:51.194Z,986.91
2019-02-02T05:38:51.205Z,986.95
2019-02-02T05:39:51.218Z,986.91
2019-02-02T05:40:51.225Z,986.96
2019-02-02T05:41:51.235Z,986.91
2019-02-02T05:42:51.253Z,986.95
2019-02-02T05:43:51.257Z,986.93
2019-02-02T05:44:51.276Z,986.90
2019-02-02T05:45:51.279Z,986.90
2019-02-02T05:46:51.292Z,986.89
2019-02-02T05:47:51.298Z,986.90
2019-02-02T05:48:51.308Z,986.93
2019-02-02T05:49:51.316Z,986.91
2019-02-02T05:50:51.331Z,986.91
2019-02-02T05:51:51.348Z,986.93
2019-02-02T05:52:51.353Z,986.98
2019-02-02T05:53:51.362Z,987.03
2019-02-02T05:54:51.374Z,986.99
2019-02-02T05:55:51.379Z,986.98
2019-02-02T05:56:51.396Z,986.97
2019-02-02T05:57:51.416Z,987.08
2019-02-02T05:58:51.419Z,987.09
2019-02-02T05:59:52.980Z,987.05
2019-02-02T06:00:51.433Z,987.14
2019-02-02T06:01:51.445Z,987.14
2019-02-02T06:02:51.456Z,987.23
2019-02-02T06:03:51.463Z,987.23
2019-02-02T06:04:51.473Z,987.24
2019-02-02T06:05:51.491Z,987.23
2019-02-02T06:06:51.501Z,987.22
2019-02-02T06:07:51.507Z,987.24
2019-02-02T06:08:51.516Z,987.25
2019-02-02T06:09:51.555Z,987.22
2019-02-02T06:10:51.539Z,987.25
2019-02-02T06:11:51.551Z,987.27
2019-02-02T06:12:51.567Z,987.28
2019-02-02T06:13:51.572Z,987.31
2019-02-02T06:14:51.581Z,987.36
2019-02-02T06:15:51.590Z,987.32
2019-02-02T06:16:51.600Z,987.31
2019-02-02T06:17:51.619Z,987.33
2019-02-02T06:18:51.622Z,987.37
2019-02-02T06:19:51.641Z,987.34
2019-02-02T06:20:51.641Z,987.39
2019-02-02T06:21:51.699Z,987.41
2019-02-02T06:22:51.665Z,987.39
2019-02-02T06:23:51.674Z,987.35
2019-02-02T06:24:52.738Z,987.40
2019-02-02T06:25:51.701Z,987.41
2019-02-02T06:26:51.703Z,987.40
2019-02-02T06:27:51.716Z,987.38
2019-02-02T06:28:51.723Z,987.39
2019-02-02T06:29:51.735Z,987.42
2019-02-02T06:30:51.878Z,987.48
2019-02-02T06:31:51.755Z,987.45
2019-02-02T06:32:51.769Z,987.47
2019-02-02T06:33:51.779Z,987.49
2019-02-02T06:34:51.786Z,987.53
2019-02-02T06:35:51.802Z,987.54
2019-02-02T06:36:51.806Z,987.58
2019-02-02T06:37:51.813Z,987.56
2019-02-02T06:38:51.831Z,987.58
2019-02-02T06:39:51.838Z,987.61
2019-02-02T06:40:51.850Z,987.60
2019-02-02T06:41:51.860Z,987.58
2019-02-02T06:42:51.884Z,987.53
2019-02-02T06:43:51.886Z,987.59
2019-02-02T06:44:51.887Z,987.59
2019-02-02T06:45:51.900Z,987.56
2019-02-02T06:46:51.911Z,987.53
2019-02-02T06:47:51.928Z,987.52
2019-02-02T06:48:51.934Z,987.52
2019-02-02T06:49:51.940Z,987.55
2019-02-02T06:50:51.949Z,987.60
2019-02-02T06:51:51.958Z,987.62
2019-02-02T06:52:51.973Z,987.65
2019-02-02T06:53:51.988Z,987.68
2019-02-02T06:54:51.995Z,987.70
2019-02-02T06:55:52.001Z,987.70
2019-02-02T06:56:52.011Z,987.70
2019-02-02T06:57:52.037Z,987.69
2019-02-02T06:58:52.028Z,987.71
2019-02-02T06:59:52.044Z,987.67
2019-02-02T07:00:52.066Z,987.67
2019-02-02T07:01:52.063Z,987.72
2019-02-02T07:02:52.071Z,987.71
2019-02-02T07:03:52.082Z,987.71
2019-02-02T07:04:52.095Z,987.72
2019-02-02T07:05:52.103Z,987.73
2019-02-02T07:06:52.116Z,987.74
2019-02-02T07:07:52.126Z,987.74
2019-02-02T07:08:52.138Z,987.72
2019-02-02T07:09:52.148Z,987.75
2019-02-02T07:10:52.157Z,987.71
2019-02-02T07:11:52.166Z,987.77
2019-02-02T07:12:52.189Z,987.71
2019-02-02T07:13:52.187Z,987.72
2019-02-02T07:14:52.203Z,987.75
2019-02-02T07:15:52.212Z,987.72
2019-02-02T07:16:52.221Z,987.74
2019-02-02T07:17:52.236Z,987.79
2019-02-02T07:18:52.241Z,987.77
2019-02-02T07:19:52.252Z,987.80
2019-02-02T07:20:52.262Z,987.78
2019-02-02T07:21:52.272Z,987.81
2019-02-02T07:22:52.307Z,987.81
2019-02-02T07:23:52.296Z,987.83
2019-02-02T07:24:52.305Z,987.87
2019-02-02T07:25:52.323Z,987.90
2019-02-02T07:26:52.325Z,987.95
2019-02-02T07:27:52.334Z,987.97
2019-02-02T07:28:52.345Z,988.03
2019-02-02T07:29:52.361Z,988.03
2019-02-02T07:30:52.373Z,988.07
2019-02-02T07:31:52.382Z,988.07
2019-02-02T07:32:52.391Z,988.10
2019-02-02T07:33:52.402Z,988.11
2019-02-02T07:34:52.415Z,988.16
2019-02-02T07:35:54.073Z,988.17
2019-02-02T07:36:52.433Z,988.18
2019-02-02T07:37:52.448Z,988.20
2019-02-02T07:38:52.458Z,988.27
2019-02-02T07:39:52.467Z,988.27
2019-02-02T07:40:52.478Z,988.34
2019-02-02T07:41:52.491Z,988.34
2019-02-02T07:42:52.498Z,988.37
2019-02-02T07:43:52.509Z,988.42
2019-02-02T07:44:52.521Z,988.39
2019-02-02T07:45:52.535Z,988.44
2019-02-02T07:46:52.542Z,988.48
2019-02-02T07:47:52.611Z,988.47
2019-02-02T07:48:52.564Z,988.43
2019-02-02T07:49:52.574Z,988.43
2019-02-02T07:50:52.583Z,988.44
2019-02-02T07:51:52.601Z,988.46
2019-02-02T07:52:52.642Z,988.46
2019-02-02T07:53:52.617Z,988.46
2019-02-02T07:54:52.626Z,988.49
2019-02-02T07:55:52.641Z,988.49
2019-02-02T07:56:52.650Z,988.50
2019-02-02T07:57:52.662Z,988.54
2019-02-02T07:58:52.669Z,988.57
2019-02-02T07:59:52.684Z,988.56
2019-02-02T08:00:52.719Z,988.65
2019-02-02T08:01:52.728Z,988.64
2019-02-02T08:02:52.715Z,988.66
2019-02-02T08:03:52.730Z,988.75
2019-02-02T08:04:52.735Z,988.73
2019-02-02T08:05:52.751Z,988.73
2019-02-02T08:06:52.754Z,988.71
2019-02-02T08:07:52.767Z,988.75
2019-02-02T08:08:52.783Z,988.74
2019-02-02T08:09:52.797Z,988.74
2019-02-02T08:10:55.024Z,988.74
2019-02-02T08:11:52.813Z,988.74
2019-02-02T08:12:52.826Z,988.79
2019-02-02T08:13:52.842Z,988.82
2019-02-02T08:14:52.852Z,988.80
2019-02-02T08:15:52.858Z,988.83
2019-02-02T08:16:52.890Z,988.90
2019-02-02T08:17:52.882Z,988.91
2019-02-02T08:18:52.926Z,988.88
2019-02-02T08:19:52.901Z,988.93
2019-02-02T08:20:52.916Z,988.88
2019-02-02T08:21:52.921Z,988.86
2019-02-02T08:22:52.931Z,988.88
2019-02-02T08:23:53.000Z,988.92
2019-02-02T08:24:52.955Z,988.90
2019-02-02T08:25:52.969Z,988.97
2019-02-02T08:26:52.975Z,988.97
2019-02-02T08:27:52.987Z,989.06
2019-02-02T08:28:52.999Z,989.04
2019-02-02T08:29:53.007Z,989.06
2019-02-02T08:30:53.045Z,989.12
2019-02-02T08:31:53.034Z,989.13
2019-02-02T08:32:53.044Z,989.19
2019-02-02T08:33:53.055Z,989.18
2019-02-02T08:34:53.066Z,989.23
2019-02-02T08:35:53.076Z,989.29
2019-02-02T08:36:53.087Z,989.28
2019-02-02T08:37:53.097Z,989.28
2019-02-02T08:38:53.113Z,989.32
2019-02-02T08:39:53.119Z,989.34
2019-02-02T08:40:53.199Z,989.36
2019-02-02T08:41:53.143Z,989.37
2019-02-02T08:42:53.167Z,989.41
2019-02-02T08:43:53.168Z,989.49
2019-02-02T08:44:53.205Z,989.47
2019-02-02T08:45:53.190Z,989.48
2019-02-02T08:46:53.197Z,989.48
2019-02-02T08:47:53.213Z,989.47
2019-02-02T08:48:53.220Z,989.53
2019-02-02T08:49:53.231Z,989.52
2019-02-02T08:50:53.240Z,989.50
2019-02-02T08:51:53.300Z,989.54
2019-02-02T08:52:53.272Z,989.50
2019-02-02T08:53:53.279Z,989.53
2019-02-02T08:54:53.317Z,989.57
2019-02-02T08:55:53.337Z,989.55
2019-02-02T08:56:53.313Z,989.61
2019-02-02T08:57:53.354Z,989.59
2019-02-02T08:58:53.332Z,989.61
2019-02-02T08:59:53.344Z,989.53
2019-02-02T09:01:03.835Z,989.53
2019-02-02T09:01:53.367Z,989.59
2019-02-02T09:02:53.381Z,989.58
2019-02-02T09:03:53.427Z,989.57
2019-02-02T09:04:53.400Z,989.63
2019-02-02T09:05:53.433Z,989.65
2019-02-02T09:06:53.423Z,989.67
2019-02-02T09:07:53.433Z,989.61
2019-02-02T09:08:53.460Z,989.66
2019-02-02T09:09:53.456Z,989.69
2019-02-02T09:10:53.467Z,989.71
2019-02-02T09:11:53.483Z,989.75
2019-02-02T09:12:53.485Z,989.77
2019-02-02T09:13:53.496Z,989.80
2019-02-02T09:14:53.511Z,989.85
2019-02-02T09:15:53.525Z,989.87
2019-02-02T09:16:53.534Z,989.86
2019-02-02T09:17:53.547Z,989.87
2019-02-02T09:18:53.555Z,989.90
2019-02-02T09:19:53.568Z,989.89
2019-02-02T09:20:53.580Z,989.91
2019-02-02T09:21:53.595Z,989.90
2019-02-02T09:23:03.951Z,989.93
2019-02-02T09:23:53.622Z,989.93
2019-02-02T09:24:53.629Z,989.87
2019-02-02T09:25:53.638Z,989.94
2019-02-02T09:26:53.645Z,989.94
2019-02-02T09:27:53.660Z,989.95
2019-02-02T09:28:53.673Z,989.98
2019-02-02T09:29:53.680Z,990.01
2019-02-02T09:30:53.690Z,989.98
2019-02-02T09:31:53.704Z,990.04
2019-02-02T09:32:53.741Z,989.99
2019-02-02T09:33:53.725Z,990.02
2019-02-02T09:34:53.737Z,990.03
2019-02-02T09:35:53.749Z,990.02
2019-02-02T09:36:53.756Z,990.02
2019-02-02T09:37:53.790Z,990.02
2019-02-02T09:38:53.792Z,990.01
2019-02-02T09:39:53.796Z,990.01
2019-02-02T09:40:53.805Z,990.01
2019-02-02T09:41:53.816Z,990.04
2019-02-02T09:42:53.825Z,990.07
2019-02-02T09:43:53.850Z,990.12
2019-02-02T09:44:53.856Z,990.11
2019-02-02T09:45:53.865Z,990.05
2019-02-02T09:46:53.872Z,990.08
2019-02-02T09:47:53.881Z,990.07
2019-02-02T09:48:53.888Z,990.04
2019-02-02T09:49:53.900Z,990.10
2019-02-02T09:50:53.912Z,990.10
2019-02-02T09:51:53.921Z,990.11
2019-02-02T09:52:53.930Z,990.16
2019-02-02T09:53:53.955Z,990.20
2019-02-02T09:54:53.961Z,990.23
2019-02-02T09:55:53.963Z,990.22
2019-02-02T09:56:53.982Z,990.31
2019-02-02T09:57:55.171Z,990.29
2019-02-02T09:58:54.005Z,990.35
2019-02-02T09:59:54.011Z,990.38
2019-02-02T10:00:54.026Z,990.39
2019-02-02T10:01:54.037Z,990.39
2019-02-02T10:02:54.045Z,990.42
2019-02-02T10:03:54.059Z,990.46
2019-02-02T10:04:54.065Z,990.50
2019-02-02T10:05:54.076Z,990.49
2019-02-02T10:06:54.087Z,990.55
2019-02-02T10:07:54.104Z,990.54
2019-02-02T10:08:54.120Z,990.55
2019-02-02T10:09:54.116Z,990.58
2019-02-02T10:10:54.135Z,990.67
2019-02-02T10:11:54.142Z,990.65
2019-02-02T10:12:54.147Z,990.67
2019-02-02T10:13:54.160Z,990.72
2019-02-02T10:14:54.177Z,990.75
2019-02-02T10:15:54.186Z,990.76
2019-02-02T10:16:54.190Z,990.78
2019-02-02T10:17:54.220Z,990.78
2019-02-02T10:18:54.215Z,990.82
2019-02-02T10:19:54.241Z,990.78
2019-02-02T10:21:03.767Z,990.75
2019-02-02T10:21:54.252Z,990.76
2019-02-02T10:22:54.265Z,990.76
2019-02-02T10:23:54.269Z,990.81
2019-02-02T10:24:54.287Z,990.74
2019-02-02T10:25:54.293Z,990.79
2019-02-02T10:26:54.299Z,990.79
2019-02-02T10:27:54.328Z,990.76
2019-02-02T10:28:54.321Z,990.76
2019-02-02T10:29:54.340Z,990.78
2019-02-02T10:30:54.343Z,990.77
2019-02-02T10:31:54.357Z,990.74
2019-02-02T10:32:54.365Z,990.72
2019-02-02T10:33:54.378Z,990.71
2019-02-02T10:34:54.411Z,990.74
2019-02-02T10:35:54.402Z,990.71
2019-02-02T10:36:54.418Z,990.70
2019-02-02T10:37:54.422Z,990.66
2019-02-02T10:38:54.434Z,990.70
2019-02-02T10:39:54.440Z,990.70
2019-02-02T10:40:54.456Z,990.70
2019-02-02T10:41:54.470Z,990.72
2019-02-02T10:42:54.474Z,990.73
2019-02-02T10:43:54.488Z,990.75
2019-02-02T10:44:54.501Z,990.76
2019-02-02T10:45:54.525Z,990.72
2019-02-02T10:46:54.519Z,990.77
2019-02-02T10:47:54.534Z,990.76
2019-02-02T10:48:54.543Z,990.81
2019-02-02T10:49:54.581Z,990.80
2019-02-02T10:50:54.572Z,990.81
2019-02-02T10:51:54.582Z,990.86
2019-02-02T10:52:54.600Z,990.86
2019-02-02T10:53:54.637Z,990.89
2019-02-02T10:54:54.650Z,990.86
2019-02-02T10:55:54.632Z,990.85
2019-02-02T10:56:54.629Z,990.84
2019-02-02T10:57:54.638Z,990.86
2019-02-02T10:58:54.654Z,990.87
2019-02-02T10:59:54.664Z,990.84
2019-02-02T11:00:54.807Z,990.84
2019-02-02T11:01:54.688Z,990.86
2019-02-02T11:02:54.718Z,990.85
2019-02-02T11:03:54.708Z,990.86
2019-02-02T11:04:54.734Z,990.92
2019-02-02T11:05:54.871Z,990.90
2019-02-02T11:06:54.869Z,990.91
2019-02-02T11:07:55.065Z,990.93
2019-02-02T11:08:55.348Z,990.94
2019-02-02T11:09:54.778Z,990.92
2019-02-02T11:10:54.915Z,990.99
2019-02-02T11:11:54.795Z,990.97
2019-02-02T11:12:54.836Z,990.95
2019-02-02T11:13:54.949Z,990.95
2019-02-02T11:14:54.877Z,991.00
2019-02-02T11:15:54.838Z,990.97
2019-02-02T11:16:54.860Z,990.99
2019-02-02T11:17:55.015Z,990.99
2019-02-02T11:18:55.036Z,991.02
2019-02-02T11:19:54.988Z,991.01
2019-02-02T11:20:55.167Z,991.03
2019-02-02T11:21:54.909Z,991.03
2019-02-02T11:22:54.916Z,991.04
2019-02-02T11:23:54.978Z,991.09
2019-02-02T11:24:54.988Z,991.10
2019-02-02T11:25:55.001Z,991.13
2019-02-02T11:26:55.010Z,991.15
2019-02-02T11:27:54.982Z,991.17
2019-02-02T11:28:54.996Z,991.19
2019-02-02T11:29:55.015Z,991.21
2019-02-02T11:30:54.999Z,991.23
2019-02-02T11:32:02.548Z,991.19
2019-02-02T11:32:55.027Z,991.16
2019-02-02T11:33:55.044Z,991.24
2019-02-02T11:34:55.049Z,991.20
2019-02-02T11:35:55.184Z,991.24
2019-02-02T11:36:55.073Z,991.21
2019-02-02T11:37:55.080Z,991.23
2019-02-02T11:38:55.092Z,991.25
2019-02-02T11:39:55.118Z,991.28
2019-02-02T11:40:55.114Z,991.31
2019-02-02T11:41:55.126Z,991.29
2019-02-02T11:42:55.134Z,991.32
2019-02-02T11:43:55.147Z,991.30
2019-02-02T11:44:55.154Z,991.33
2019-02-02T11:45:55.166Z,991.28
2019-02-02T11:46:55.181Z,991.28
2019-02-02T11:47:55.191Z,991.37
2019-02-02T11:48:55.201Z,991.39
2019-02-02T11:49:55.213Z,991.41
2019-02-02T11:50:55.223Z,991.44
2019-02-02T11:51:55.232Z,991.46
2019-02-02T11:52:55.253Z,991.50
2019-02-02T11:53:55.260Z,991.57
2019-02-02T11:54:55.264Z,991.58
2019-02-02T11:55:55.275Z,991.58
2019-02-02T11:56:55.303Z,991.62
2019-02-02T11:57:55.299Z,991.57
2019-02-02T11:58:55.308Z,991.61
2019-02-02T11:59:55.324Z,991.58
2019-02-02T12:00:55.329Z,991.65
2019-02-02T12:01:55.345Z,991.70
2019-02-02T12:02:55.360Z,991.71
2019-02-02T12:03:55.369Z,991.71
2019-02-02T12:04:55.380Z,991.77
2019-02-02T12:05:55.397Z,991.78
2019-02-02T12:06:55.402Z,991.82
2019-02-02T12:07:55.410Z,991.82
2019-02-02T12:08:55.430Z,991.84
2019-02-02T12:09:55.449Z,991.91
2019-02-02T12:10:55.447Z,991.94
2019-02-02T12:11:55.448Z,991.98
2019-02-02T12:12:55.458Z,992.01
2019-02-02T12:13:55.470Z,992.02
2019-02-02T12:14:56.987Z,992.05
2019-02-02T12:15:55.499Z,992.01
2019-02-02T12:16:55.516Z,992.00
2019-02-02T12:17:55.519Z,992.02
2019-02-02T12:18:55.524Z,992.03
2019-02-02T12:19:55.537Z,992.01
2019-02-02T12:20:55.547Z,992.04
2019-02-02T12:21:55.564Z,992.03
2019-02-02T12:22:55.570Z,992.04
2019-02-02T12:23:55.581Z,992.02
2019-02-02T12:24:55.588Z,992.04
2019-02-02T12:25:55.603Z,992.05
2019-02-02T12:26:55.612Z,992.03
2019-02-02T12:27:55.626Z,992.04
2019-02-02T12:28:55.654Z,992.06
2019-02-02T12:29:57.723Z,992.08
2019-02-02T12:30:55.659Z,992.10
2019-02-02T12:31:55.680Z,992.14
2019-02-02T12:32:55.679Z,992.10
2019-02-02T12:33:55.695Z,992.17
2019-02-02T12:34:55.699Z,992.11
2019-02-02T12:35:55.720Z,992.16
2019-02-02T12:36:55.741Z,992.16
2019-02-02T12:37:55.729Z,992.15
2019-02-02T12:38:55.754Z,992.18
2019-02-02T12:39:55.755Z,992.17
2019-02-02T12:40:55.784Z,992.16
2019-02-02T12:41:55.775Z,992.16
2019-02-02T12:42:55.798Z,992.20
2019-02-02T12:43:55.803Z,992.23
2019-02-02T12:44:55.815Z,992.20
2019-02-02T12:45:55.826Z,992.26
2019-02-02T12:46:55.846Z,992.35
2019-02-02T12:47:55.846Z,992.32
2019-02-02T12:48:55.857Z,992.39
2019-02-02T12:49:55.901Z,992.38
2019-02-02T12:50:55.875Z,992.41
2019-02-02T12:51:55.893Z,992.42
2019-02-02T12:52:55.898Z,992.38
2019-02-02T12:53:56.081Z,992.39
2019-02-02T12:54:55.944Z,992.49
2019-02-02T12:55:55.932Z,992.50
2019-02-02T12:56:55.941Z,992.52
2019-02-02T12:57:55.953Z,992.55
2019-02-02T12:58:55.973Z,992.54
2019-02-02T12:59:55.981Z,992.55
2019-02-02T13:00:55.981Z,992.55
2019-02-02T13:01:55.994Z,992.55
2019-02-02T13:02:56.010Z,992.59
2019-02-02T13:04:01.675Z,992.58
2019-02-02T13:04:56.026Z,992.54
2019-02-02T13:05:56.035Z,992.60
2019-02-02T13:06:56.051Z,992.61
2019-02-02T13:07:56.062Z,992.56
2019-02-02T13:08:56.082Z,992.65
2019-02-02T13:09:56.090Z,992.64
2019-02-02T13:10:56.097Z,992.65
2019-02-02T13:11:56.277Z,992.66
2019-02-02T13:12:56.116Z,992.69
2019-02-02T13:13:56.125Z,992.72
2019-02-02T13:14:56.142Z,992.65
2019-02-02T13:15:56.168Z,992.67
2019-02-02T13:16:56.173Z,992.76
2019-02-02T13:17:56.168Z,992.74
2019-02-02T13:18:56.180Z,992.73
2019-02-02T13:19:56.195Z,992.73
2019-02-02T13:20:56.205Z,992.77
2019-02-02T13:21:56.218Z,992.76
2019-02-02T13:22:56.224Z,992.79
2019-02-02T13:23:56.240Z,992.83
2019-02-02T13:24:56.250Z,992.80
2019-02-02T13:26:04.923Z,992.79
2019-02-02T13:26:56.272Z,992.86